Main page
METAR-TAF:

METAR-TAF

Airports :

Sligo Airport

Sligo, Ireland

latitude: 54-16-49N, longitude: 8-35-57W, elevation: 3 m

Current weather observation

The report was made 36 minutes ago, at 18:00 UTC
Wind 16 kt from the West/Northwest
Temperature 8°C
Humidity 87%
Pressure 1021 hPa
Visibility: 7000 m
Scattered clouds at a height of 2300 ft
Broken clouds at a height of 2800 ft
Overcast at a height of 3800 ft

METAR: EISG 291800Z 29016KT 7000 SCT023 BKN028 OVC038 08/06 Q1021

Time: 18:36 (18:36 UTC)

Forecast

The report was made 1 hour and 36 minutes ago, at 17:00 UTC
Forecast valid from 29 at 18 UTC to 30 at 03 UTC
Wind 15 kt from the West/Northwest
Visibility 10 km or more
Broken clouds at a height of 2500 ft
Temporary
from 29 at 18 UTC to 30 at 03 UTC
Wind 16 kt from the West/Northwest with gusts up to 27 kt

TAF: EISG 291700Z 2918/3003 30015KT 9999 BKN025 TEMPO 2918/3003 29016G27KT

Weather observations and forecasts of more than 4000 airports (METAR and TAF reports).

The available stations are represented by yellow and red dots on the map.

Hover mouse over dot to see the name of the station.

Then click to see weather observations and forecasts.

To change the map : click on the green buttons with a black cross to zoom in, on the green button with a dash to zoom out, or on the green arrows for adjacent maps.


METAR-TAF: